createdAt,value
2017-08-27T00:02:40.889Z,16.37
2017-08-27T00:05:50.827Z,12.77
2017-08-27T00:09:01.045Z,12.10
2017-08-27T00:12:11.620Z,14.55
2017-08-27T00:15:22.429Z,13.23
2017-08-27T00:18:32.634Z,14.77
2017-08-27T00:21:43.529Z,15.70
2017-08-27T00:24:54.099Z,13.00
2017-08-27T00:28:04.065Z,17.98
2017-08-27T00:31:14.212Z,17.17
2017-08-27T00:34:24.953Z,13.38
2017-08-27T00:37:35.589Z,16.90
2017-08-27T00:40:45.969Z,18.48
2017-08-27T00:43:56.130Z,14.10
2017-08-27T01:02:53.585Z,14.30
2017-08-27T01:09:13.759Z,15.00
2017-08-27T01:12:24.406Z,16.85
2017-08-27T01:15:34.659Z,17.02
2017-08-27T01:18:45.038Z,15.40
2017-08-27T01:21:55.444Z,18.17
2017-08-27T01:25:05.256Z,14.80
2017-08-27T01:28:15.652Z,15.20
2017-08-27T01:31:27.259Z,16.95
2017-08-27T01:34:37.693Z,14.20
2017-08-27T01:37:48.252Z,18.33
2017-08-27T01:40:58.137Z,17.43
2017-08-27T01:44:08.721Z,13.80
2017-08-27T01:47:19.195Z,13.65
2017-08-27T01:50:29.616Z,17.75
2017-08-27T01:53:40.593Z,14.68
2017-08-27T01:56:51.337Z,15.90
2017-08-27T02:00:01.391Z,15.10
2017-08-27T02:03:12.133Z,16.60
2017-08-27T02:06:22.400Z,14.90
2017-08-27T02:09:33.545Z,15.25
2017-08-27T02:12:44.008Z,15.70
2017-08-27T02:15:54.358Z,16.90
2017-08-27T02:19:04.916Z,15.32
2017-08-27T02:22:14.836Z,14.70
2017-08-27T02:25:25.465Z,15.13
2017-08-27T02:28:35.717Z,14.68
2017-08-27T02:31:45.603Z,14.15
2017-08-27T02:34:55.980Z,17.30
2017-08-27T02:38:06.228Z,15.90
2017-08-27T02:41:17.312Z,14.00
2017-08-27T02:44:27.327Z,15.33
2017-08-27T02:47:37.725Z,14.27
2017-08-27T02:50:47.635Z,14.38
2017-08-27T02:53:58.056Z,17.90
2017-08-27T02:57:08.152Z,17.33
2017-08-27T03:00:18.873Z,17.08
2017-08-27T03:03:28.916Z,16.00
2017-08-27T03:06:39.445Z,17.37
2017-08-27T03:09:49.722Z,17.13
2017-08-27T03:12:59.687Z,18.45
2017-08-27T03:16:09.709Z,16.12
2017-08-27T03:19:19.324Z,18.33
2017-08-27T03:22:29.152Z,16.27
2017-08-27T03:25:40.085Z,17.80
2017-08-27T03:28:50.475Z,17.07
2017-08-27T03:32:00.533Z,17.40
2017-08-27T03:35:11.449Z,17.62
2017-08-27T03:38:22.730Z,21.05
2017-08-27T03:41:33.596Z,19.85
2017-08-27T03:44:44.037Z,17.73
2017-08-27T03:47:54.152Z,18.58
2017-08-27T03:51:04.514Z,17.10
2017-08-27T03:54:14.633Z,18.23
2017-08-27T03:57:24.696Z,18.98
2017-08-27T04:00:34.755Z,20.35
2017-08-27T04:03:45.124Z,20.02
2017-08-27T04:06:55.221Z,22.92
2017-08-27T04:10:05.364Z,22.30
2017-08-27T04:13:15.943Z,25.27
2017-08-27T04:16:26.561Z,20.10
2017-08-27T04:19:36.905Z,19.23
2017-08-27T04:22:47.037Z,21.95
2017-08-27T04:25:57.333Z,21.70
2017-08-27T04:29:07.585Z,19.13
2017-08-27T04:32:17.721Z,20.80
2017-08-27T04:35:28.429Z,22.92
2017-08-27T04:38:38.728Z,22.58
2017-08-27T04:41:49.101Z,24.30
2017-08-27T04:44:59.112Z,23.23
2017-08-27T04:48:08.904Z,22.77
2017-08-27T04:51:18.546Z,27.70
2017-08-27T04:54:29.095Z,23.93
2017-08-27T04:57:39.089Z,22.77
2017-08-27T05:00:48.960Z,24.58
2017-08-27T05:03:59.706Z,26.27
2017-08-27T05:07:09.780Z,29.37
2017-08-27T05:10:20.034Z,31.30
2017-08-27T05:13:30.094Z,26.73
2017-08-27T05:16:40.521Z,25.37
2017-08-27T05:19:51.187Z,23.50
2017-08-27T05:23:01.654Z,26.33
2017-08-27T05:26:11.781Z,32.53
2017-08-27T05:29:21.977Z,27.47
2017-08-27T05:32:32.124Z,28.20
2017-08-27T05:35:43.161Z,31.50
2017-08-27T05:38:52.745Z,28.30
2017-08-27T05:42:02.638Z,31.40
2017-08-27T05:45:12.645Z,22.95
2017-08-27T05:48:22.930Z,29.60
2017-08-27T05:51:33.265Z,27.20
2017-08-27T05:54:43.475Z,30.73
2017-08-27T05:57:53.490Z,28.38
2017-08-27T06:01:03.343Z,27.60
2017-08-27T06:04:14.397Z,30.88
2017-08-27T06:07:24.255Z,30.50
2017-08-27T06:10:34.701Z,27.40
2017-08-27T06:13:45.248Z,31.02
2017-08-27T06:16:55.584Z,31.25
2017-08-27T06:20:05.945Z,30.90
2017-08-27T06:23:16.207Z,29.40
2017-08-27T06:26:26.176Z,31.45
2017-08-27T06:29:36.760Z,30.37
2017-08-27T06:32:46.761Z,28.02
2017-08-27T06:35:57.217Z,28.20
2017-08-27T06:39:06.997Z,32.85
2017-08-27T06:42:17.655Z,29.23
2017-08-27T06:45:27.866Z,29.60
2017-08-27T06:48:37.576Z,30.17
2017-08-27T06:51:48.077Z,30.70
2017-08-27T06:54:58.243Z,30.73
2017-08-27T06:58:08.126Z,30.77
2017-08-27T07:04:27.865Z,31.67
2017-08-27T07:07:38.124Z,31.60
2017-08-27T07:10:48.601Z,24.52
2017-08-27T07:13:58.454Z,23.10
2017-08-27T07:17:08.618Z,28.15
2017-08-27T07:20:18.441Z,28.25
2017-08-27T22:12:52.149Z,10.50
2017-08-27T22:16:01.794Z,9.85
2017-08-27T22:19:12.097Z,10.17
2017-08-27T22:22:22.294Z,11.57
2017-08-27T22:25:32.684Z,10.68
2017-08-27T22:28:43.182Z,9.40
2017-08-27T22:31:53.718Z,9.25
2017-08-27T22:35:04.509Z,9.60
2017-08-27T22:38:14.534Z,9.40
2017-08-27T22:41:24.173Z,9.43
2017-08-27T22:44:35.058Z,9.90
2017-08-27T22:47:45.265Z,9.73
2017-08-27T22:50:55.449Z,10.30
2017-08-27T22:54:05.359Z,10.63
2017-08-27T22:57:15.889Z,9.60
2017-08-27T23:00:26.269Z,9.10
2017-08-27T23:03:36.199Z,10.90
2017-08-27T23:06:46.414Z,9.48
2017-08-27T23:09:56.757Z,9.33
2017-08-27T23:13:06.809Z,10.13
2017-08-27T23:16:17.543Z,10.18
2017-08-27T23:19:27.689Z,11.00
2017-08-27T23:22:37.989Z,10.67
2017-08-27T23:25:48.317Z,11.00
2017-08-27T23:28:59.749Z,10.27
2017-08-27T23:32:09.901Z,9.03
2017-08-27T23:35:20.559Z,11.23
2017-08-27T23:38:30.781Z,10.57
2017-08-27T23:41:40.816Z,9.90
2017-08-27T23:44:51.654Z,10.50
2017-08-27T23:48:01.694Z,11.15
2017-08-27T23:51:12.027Z,10.17
2017-08-27T23:54:22.286Z,9.90
2017-08-27T23:57:32.036Z,9.60
